sensor_id;sensor_type;location;lat;lon;timestamp;pressure;altitude;pressure_sealevel;temperature;humidity
31162;BME280;17796;49.296;-117.656;2023-09-12T00:06:45;96100;;;24.09396;52.54151
31162;BME280;17796;49.296;-117.656;2023-09-12T00:21:49;96100;;;24.09555;52.652
31162;BME280;17796;49.296;-117.656;2023-09-12T00:36:54;96100;;;23.84493;54.6146
31162;BME280;17796;49.296;-117.656;2023-09-12T00:51:58;96100;;;23.65434;63.46587
31162;BME280;17796;49.296;-117.656;2023-09-12T01:07:04;96100;;;22.94376;62.46518
31162;BME280;17796;49.296;-117.656;2023-09-12T01:22:15;96100;;;22.72427;64.14163
31162;BME280;17796;49.296;-117.656;2023-09-12T01:37:33;96000;;;21.55726;61.62622
31162;BME280;17796;49.296;-117.656;2023-09-12T01:52:37;96000;;;21.92064;70.26916
31162;BME280;17796;49.296;-117.656;2023-09-12T02:07:42;96000;;;21.91301;67.5396
31162;BME280;17796;49.296;-117.656;2023-09-12T02:22:46;96000;;;21.57219;67.33533
31162;BME280;17796;49.296;-117.656;2023-09-12T02:37:50;96000;;;21.19038;68.72127
31162;BME280;17796;49.296;-117.656;2023-09-12T02:52:54;96000;;;20.74696;69.92216
31162;BME280;17796;49.296;-117.656;2023-09-12T03:08:04;96000;;;20.06532;77.21166
31162;BME280;17796;49.296;-117.656;2023-09-12T03:23:07;96000;;;19.8633;81.82798
31162;BME280;17796;49.296;-117.656;2023-09-12T03:38:11;96000;;;20.33467;76.80452
31162;BME280;17796;49.296;-117.656;2023-09-12T03:53:15;96000;;;20.00814;76.21755
31162;BME280;17796;49.296;-117.656;2023-09-12T04:08:18;96100;;;19.55488;85.19203
31162;BME280;17796;49.296;-117.656;2023-09-12T04:23:22;96100;;;19.16388;86.78695
31162;BME280;17796;49.296;-117.656;2023-09-12T04:38:28;96100;;;19.02031;83.1001
31162;BME280;17796;49.296;-117.656;2023-09-12T04:53:32;96100;;;18.27229;84.80769
31162;BME280;17796;49.296;-117.656;2023-09-12T05:08:35;96100;;;18.43651;100.0
31162;BME280;17796;49.296;-117.656;2023-09-12T05:23:39;96100;;;17.88701;100.0
31162;BME280;17796;49.296;-117.656;2023-09-12T05:38:42;96100;;;18.09982;100.0
31162;BME280;17796;49.296;-117.656;2023-09-12T05:53:46;96100;;;18.04805;99.14228
31162;BME280;17796;49.296;-117.656;2023-09-12T06:08:50;96100;;;17.38135;100.0
31162;BME280;17796;49.296;-117.656;2023-09-12T06:24:16;96100;;;17.13329;100.0
31162;BME280;17796;49.296;-117.656;2023-09-12T06:39:21;96100;;;16.84774;100.0
31162;BME280;17796;49.296;-117.656;2023-09-12T06:54:25;96100;;;16.57364;99.45463
31162;BME280;17796;49.296;-117.656;2023-09-12T07:09:28;96100;;;16.12992;100.0
31162;BME280;17796;49.296;-117.656;2023-09-12T07:24:32;96100;;;15.85804;100.0
31162;BME280;17796;49.296;-117.656;2023-09-12T07:39:36;96100;;;15.83231;100.0
31162;BME280;17796;49.296;-117.656;2023-09-12T07:54:39;96100;;;15.32666;100.0
31162;BME280;17796;49.296;-117.656;2023-09-12T08:09:49;96100;;;15.23773;100.0
31162;BME280;17796;49.296;-117.656;2023-09-12T08:24:53;96100;;;14.88295;100.0
31162;BME280;17796;49.296;-117.656;2023-09-12T08:39:57;96100;;;14.77147;100.0
31162;BME280;17796;49.296;-117.656;2023-09-12T08:55:01;96100;;;14.36778;100.0
31162;BME280;17796;49.296;-117.656;2023-09-12T09:10:06;96100;;;14.27853;100.0
31162;BME280;17796;49.296;-117.656;2023-09-12T09:25:13;96100;;;14.04826;100.0
31162;BME280;17796;49.296;-117.656;2023-09-12T09:40:17;96100;;;13.96981;100.0
31162;BME280;17796;49.296;-117.656;2023-09-12T09:55:20;96200;;;13.49371;100.0
31162;BME280;17796;49.296;-117.656;2023-09-12T10:10:24;96200;;;13.46799;100.0
31162;BME280;17796;49.296;-117.656;2023-09-12T10:25:31;96200;;;13.06589;100.0
31162;BME280;17796;49.296;-117.656;2023-09-12T10:40:37;96200;;;13.21644;100.0
31162;BME280;17796;49.296;-117.656;2023-09-12T10:55:42;96200;;;13.14498;100.0
31162;BME280;17796;49.296;-117.656;2023-09-12T11:11:33;96200;;;12.58948;100.0
31162;BME280;17796;49.296;-117.656;2023-09-12T11:26:52;96200;;;12.76353;100.0
31162;BME280;17796;49.296;-117.656;2023-09-12T11:41:56;96200;;;12.4456;100.0
31162;BME280;17796;49.296;-117.656;2023-09-12T11:57:02;96200;;;12.32205;100.0
31162;BME280;17796;49.296;-117.656;2023-09-12T12:12:10;96200;;;12.44656;100.0
31162;BME280;17796;49.296;-117.656;2023-09-12T12:27:15;96200;;;12.49483;100.0
31162;BME280;17796;49.296;-117.656;2023-09-12T12:42:20;96200;;;12.43099;100.0
31162;BME280;17796;49.296;-117.656;2023-09-12T12:57:23;96200;;;12.60536;100.0
31162;BME280;17796;49.296;-117.656;2023-09-12T13:12:27;96200;;;12.5447;100.0
31162;BME280;17796;49.296;-117.656;2023-09-12T13:27:31;96200;;;12.451;100.0
31162;BME280;17796;49.296;-117.656;2023-09-12T13:42:36;96200;;;12.46148;100.0
31162;BME280;17796;49.296;-117.656;2023-09-12T13:57:39;96200;;;13.2355;100.0
31162;BME280;17796;49.296;-117.656;2023-09-12T14:12:43;96200;;;13.1345;100.0
31162;BME280;17796;49.296;-117.656;2023-09-12T14:27:47;96200;;;13.37207;100.0
31162;BME280;17796;49.296;-117.656;2023-09-12T14:42:51;96200;;;13.52484;100.0
31162;BME280;17796;49.296;-117.656;2023-09-12T14:57:54;96200;;;14.45608;100.0
31162;BME280;17796;49.296;-117.656;2023-09-12T15:12:58;96300;;;13.62362;100.0
31162;BME280;17796;49.296;-117.656;2023-09-12T15:28:02;96200;;;15.10846;100.0
31162;BME280;17796;49.296;-117.656;2023-09-12T15:43:06;96200;;;16.62318;100.0
31162;BME280;17796;49.296;-117.656;2023-09-12T15:58:09;96200;;;17.57828;100.0
31162;BME280;17796;49.296;-117.656;2023-09-12T16:13:13;96200;;;18.59818;93.8196
31162;BME280;17796;49.296;-117.656;2023-09-12T16:28:16;96200;;;18.95678;91.47759
31162;BME280;17796;49.296;-117.656;2023-09-12T16:43:21;96200;;;19.76611;80.14632
31162;BME280;17796;49.296;-117.656;2023-09-12T16:58:25;96200;;;19.55393;80.64113
31162;BME280;17796;49.296;-117.656;2023-09-12T17:13:28;96200;;;20.20381;75.32315
31162;BME280;17796;49.296;-117.656;2023-09-12T17:28:32;96200;;;20.68852;69.52802
31162;BME280;17796;49.296;-117.656;2023-09-12T17:43:35;96100;;;22.11535;62.53516
31162;BME280;17796;49.296;-117.656;2023-09-12T17:58:39;96100;;;25.8906;49.90609
31162;BME280;17796;49.296;-117.656;2023-09-12T18:13:43;96100;;;26.10502;47.16234
31162;BME280;17796;49.296;-117.656;2023-09-12T18:28:48;96100;;;27.27972;44.05564
31162;BME280;17796;49.296;-117.656;2023-09-12T18:43:52;96100;;;25.93253;43.5043
31162;BME280;17796;49.296;-117.656;2023-09-12T18:58:55;96000;;;26.6498;42.75104
31162;BME280;17796;49.296;-117.656;2023-09-12T19:13:59;96000;;;27.20538;40.03322
31162;BME280;17796;49.296;-117.656;2023-09-12T19:29:03;96000;;;26.35406;44.46082
31162;BME280;17796;49.296;-117.656;2023-09-12T19:44:07;96000;;;27.12533;41.56043
31162;BME280;17796;49.296;-117.656;2023-09-12T19:59:11;96000;;;28.67997;38.60628
31162;BME280;17796;49.296;-117.656;2023-09-12T20:14:14;96000;;;26.58023;40.42861
31162;BME280;17796;49.296;-117.656;2023-09-12T20:29:18;95900;;;27.68632;34.99908
31162;BME280;17796;49.296;-117.656;2023-09-12T20:44:22;95900;;;26.97445;36.4268
31162;BME280;17796;49.296;-117.656;2023-09-12T20:59:27;95900;;;26.42426;35.50538
31162;BME280;17796;49.296;-117.656;2023-09-12T21:14:31;95900;;;26.64757;34.83833
31162;BME280;17796;49.296;-117.656;2023-09-12T21:29:34;95900;;;26.33119;33.31588
31162;BME280;17796;49.296;-117.656;2023-09-12T21:44:38;95900;;;26.22859;34.23984
31162;BME280;17796;49.296;-117.656;2023-09-12T21:59:42;95900;;;25.70382;34.94627
31162;BME280;17796;49.296;-117.656;2023-09-12T22:14:45;95900;;;25.34011;36.60354
31162;BME280;17796;49.296;-117.656;2023-09-12T22:29:50;95900;;;24.71401;35.17112
31162;BME280;17796;49.296;-117.656;2023-09-12T22:44:54;95900;;;24.82614;35.00571
31162;BME280;17796;49.296;-117.656;2023-09-12T22:59:58;95900;;;25.36679;34.61712
31162;BME280;17796;49.296;-117.656;2023-09-12T23:15:02;95900;;;24.78644;36.76735
31162;BME280;17796;49.296;-117.656;2023-09-12T23:30:07;95800;;;24.67875;35.70982
31162;BME280;17796;49.296;-117.656;2023-09-12T23:45:11;95800;;;24.37159;37.76484
